createdAt,value
2023-05-12T00:00:37.870Z,9.32
2023-05-12T00:03:40.630Z,9.41
2023-05-12T00:06:42.536Z,9.49
2023-05-12T00:09:44.343Z,9.43
2023-05-12T00:12:48.007Z,9.41
2023-05-12T00:15:51.352Z,9.40
2023-05-12T00:18:53.427Z,9.57
2023-05-12T00:21:55.383Z,9.72
2023-05-12T00:24:57.312Z,10.01
2023-05-12T00:27:59.361Z,10.17
2023-05-12T00:31:03.925Z,10.32
2023-05-12T00:34:05.951Z,10.44
2023-05-12T00:37:08.015Z,10.45
2023-05-12T00:40:10.226Z,10.43
2023-05-12T00:43:12.125Z,10.47
2023-05-12T00:46:14.351Z,10.52
2023-05-12T00:49:16.582Z,10.57
2023-05-12T00:52:18.867Z,10.43
2023-05-12T00:55:21.009Z,10.39
2023-05-12T00:58:23.016Z,10.36
2023-05-12T01:01:24.922Z,10.28
2023-05-12T01:04:26.957Z,10.14
2023-05-12T01:07:32.485Z,10.11
2023-05-12T01:10:34.392Z,10.06
2023-05-12T01:13:37.298Z,9.96
2023-05-12T01:17:01.852Z,9.96
2023-05-12T01:20:07.340Z,9.95
2023-05-12T01:23:09.834Z,9.92
2023-05-12T01:26:11.806Z,9.78
2023-05-12T01:29:13.633Z,9.67
2023-05-12T01:32:16.666Z,9.66
2023-05-12T01:35:19.063Z,9.57
2023-05-12T01:38:20.910Z,9.63
2023-05-12T01:41:22.735Z,9.63
2023-05-12T01:44:24.700Z,9.63
2023-05-12T01:47:26.704Z,9.60
2023-05-12T01:50:28.609Z,9.77
2023-05-12T01:53:30.517Z,9.44
2023-05-12T01:56:32.288Z,9.34
2023-05-12T01:59:34.153Z,9.33
2023-05-12T02:02:36.220Z,9.30
2023-05-12T02:05:38.152Z,9.25
2023-05-12T02:08:40.002Z,9.14
2023-05-12T02:11:41.893Z,9.12
2023-05-12T02:14:43.770Z,9.18
2023-05-12T02:17:45.782Z,9.06
2023-05-12T02:20:47.692Z,8.91
2023-05-12T02:23:49.534Z,8.96
2023-05-12T02:26:51.491Z,8.98
2023-05-12T02:29:54.100Z,8.96
2023-05-12T02:32:56.422Z,9.10
2023-05-12T02:35:58.387Z,9.03
2023-05-12T02:39:00.248Z,8.84
2023-05-12T02:42:02.050Z,8.79
2023-05-12T02:45:04.112Z,8.75
2023-05-12T02:48:06.362Z,8.81
2023-05-12T02:51:08.223Z,8.61
2023-05-12T02:54:10.056Z,8.62
2023-05-12T02:57:11.855Z,8.90
2023-05-12T03:00:14.409Z,8.90
2023-05-12T03:03:16.209Z,8.60
2023-05-12T03:06:18.247Z,8.62
2023-05-12T03:09:20.116Z,8.59
2023-05-12T03:12:21.900Z,8.50
2023-05-12T03:15:23.767Z,8.52
2023-05-12T03:18:25.665Z,8.74
2023-05-12T03:21:28.588Z,8.83
2023-05-12T03:24:30.448Z,8.68
2023-05-12T03:27:33.106Z,8.63
2023-05-12T03:30:34.932Z,8.72
2023-05-12T03:33:36.742Z,8.55
2023-05-12T03:36:38.791Z,8.70
2023-05-12T03:39:40.822Z,8.77
2023-05-12T03:42:42.656Z,8.86
2023-05-12T03:45:44.484Z,9.11
2023-05-12T03:48:46.825Z,9.21
2023-05-12T03:51:48.666Z,9.18
2023-05-12T03:54:50.765Z,9.27
2023-05-12T03:57:53.017Z,9.43
2023-05-12T04:00:57.206Z,9.44
2023-05-12T04:03:59.121Z,9.49
2023-05-12T04:07:01.003Z,9.30
2023-05-12T04:10:03.337Z,9.47
2023-05-12T04:13:05.152Z,9.37
2023-05-12T04:16:07.054Z,9.56
2023-05-12T04:19:09.150Z,9.52
2023-05-12T04:22:11.080Z,9.53
2023-05-12T04:25:12.992Z,9.55
2023-05-12T04:28:14.978Z,9.76
2023-05-12T04:31:16.907Z,9.98
2023-05-12T04:34:18.812Z,9.90
2023-05-12T04:37:22.286Z,9.99
2023-05-12T04:40:24.268Z,9.84
2023-05-12T04:46:31.450Z,9.54
2023-05-12T04:49:33.376Z,9.43
2023-05-12T04:52:35.149Z,9.53
2023-05-12T04:55:37.920Z,9.55
2023-05-12T04:58:39.718Z,9.78
2023-05-12T05:01:42.891Z,9.71
2023-05-12T05:04:44.883Z,9.91
2023-05-12T05:07:46.716Z,9.80
2023-05-12T05:10:48.573Z,9.67
2023-05-12T05:13:50.719Z,9.69
2023-05-12T05:16:52.650Z,9.73
2023-05-12T05:19:58.961Z,9.98
2023-05-12T05:23:01.121Z,9.97
2023-05-12T05:26:02.961Z,10.39
2023-05-12T05:29:04.998Z,10.57
2023-05-12T05:32:06.928Z,10.40
2023-05-12T05:35:09.633Z,10.71
2023-05-12T05:38:11.569Z,10.64
2023-05-12T05:41:13.402Z,10.57
2023-05-12T05:44:15.247Z,10.83
2023-05-12T05:47:17.152Z,10.66
2023-05-12T05:50:19.019Z,10.89
2023-05-12T05:53:21.265Z,11.31
2023-05-12T05:56:23.272Z,11.13
2023-05-12T05:59:25.535Z,11.14
2023-05-12T06:02:28.130Z,12.04
2023-05-12T06:05:30.089Z,11.83
2023-05-12T06:08:31.934Z,12.33
2023-05-12T06:11:33.732Z,12.52
2023-05-12T06:14:35.653Z,12.18
2023-05-12T06:17:37.789Z,12.59
2023-05-12T06:20:39.665Z,12.37
2023-05-12T06:23:41.676Z,12.27
2023-05-12T06:26:43.549Z,12.30
2023-05-12T06:29:45.485Z,12.76
2023-05-12T06:32:47.418Z,11.95
2023-05-12T06:35:49.215Z,11.89
2023-05-12T06:38:52.244Z,12.72
2023-05-12T06:41:54.036Z,12.17
2023-05-12T06:44:56.002Z,13.05
2023-05-12T06:47:58.240Z,12.68
2023-05-12T06:51:00.158Z,12.87
2023-05-12T06:54:02.264Z,12.68
2023-05-12T06:57:05.176Z,13.19
2023-05-12T07:00:07.701Z,12.42
2023-05-12T07:03:10.440Z,12.05
2023-05-12T07:06:12.587Z,11.67
2023-05-12T07:09:14.572Z,12.22
2023-05-12T07:12:16.433Z,12.40
2023-05-12T07:15:18.526Z,12.56
2023-05-12T07:18:20.750Z,12.29
2023-05-12T07:21:23.199Z,12.65
2023-05-12T07:24:25.630Z,13.29
2023-05-12T07:27:27.634Z,13.11
2023-05-12T07:30:29.594Z,13.20
2023-05-12T07:33:31.674Z,13.63
2023-05-12T07:36:33.778Z,13.87
2023-05-12T07:39:35.661Z,14.43
2023-05-12T07:42:37.525Z,14.77
2023-05-12T07:45:39.408Z,14.84
2023-05-12T07:48:41.261Z,14.81
2023-05-12T07:51:43.105Z,15.76
2023-05-12T07:54:44.938Z,16.12
2023-05-12T07:57:47.426Z,15.27
2023-05-12T08:00:49.297Z,14.83
2023-05-12T08:03:51.522Z,15.99
2023-05-12T08:06:53.445Z,15.84
2023-05-12T08:09:55.561Z,15.47
2023-05-12T08:12:57.844Z,15.85
2023-05-12T08:15:59.623Z,16.31
2023-05-12T08:19:01.484Z,16.92
2023-05-12T08:22:03.922Z,17.01
2023-05-12T08:25:06.226Z,17.10
2023-05-12T08:28:07.995Z,17.51
2023-05-12T08:31:09.787Z,16.15
2023-05-12T08:34:11.780Z,15.70
2023-05-12T08:37:14.358Z,15.92
2023-05-12T08:40:21.737Z,16.14
2023-05-12T08:43:38.094Z,16.33
2023-05-12T08:46:40.969Z,16.89
2023-05-12T08:49:44.216Z,17.08
2023-05-12T08:52:46.272Z,16.24
2023-05-12T08:57:08.109Z,17.08
2023-05-12T08:59:11.519Z,17.54
2023-05-12T09:02:17.425Z,18.03
2023-05-12T09:05:19.793Z,17.87
2023-05-12T09:08:21.971Z,17.41
2023-05-12T09:11:23.848Z,17.40
2023-05-12T09:14:26.392Z,14.89
2023-05-12T09:17:28.370Z,14.77
2023-05-12T09:20:31.774Z,15.06
2023-05-12T09:23:34.234Z,15.18
2023-05-12T09:26:56.021Z,15.55
2023-05-12T09:29:59.849Z,15.80
2023-05-12T09:33:12.301Z,15.35
2023-05-12T09:36:34.508Z,14.69
2023-05-12T09:39:36.729Z,14.68
2023-05-12T09:42:38.766Z,15.65
2023-05-12T09:45:42.350Z,15.48
2023-05-12T09:48:47.248Z,16.02
2023-05-12T09:51:54.076Z,16.07
2023-05-12T09:54:56.115Z,16.15
2023-05-12T09:58:01.466Z,16.63
2023-05-12T10:01:20.946Z,16.34
2023-05-12T10:04:25.382Z,15.66
2023-05-12T10:07:28.186Z,15.53
2023-05-12T10:10:30.077Z,14.70
2023-05-12T10:13:33.079Z,15.17
2023-05-12T10:16:35.747Z,15.05
2023-05-12T10:19:38.796Z,14.18
2023-05-12T10:22:41.034Z,13.92
2023-05-12T10:25:44.208Z,13.99
2023-05-12T10:28:47.189Z,13.81
2023-05-12T10:31:49.663Z,14.33
2023-05-12T10:34:52.133Z,14.51
2023-05-12T10:37:54.337Z,14.19
2023-05-12T10:41:01.055Z,14.38
2023-05-12T10:44:02.997Z,14.21
2023-05-12T10:47:16.334Z,14.39
2023-05-12T10:50:28.373Z,14.07
2023-05-12T10:53:47.683Z,13.84
2023-05-12T10:56:52.627Z,13.93
2023-05-12T10:59:59.819Z,14.09
2023-05-12T11:03:09.797Z,13.73
2023-05-12T11:06:19.572Z,13.70
2023-05-12T11:09:22.105Z,13.87
2023-05-12T11:12:26.487Z,14.11
2023-05-12T11:15:29.523Z,14.21
2023-05-12T11:18:31.605Z,14.06
2023-05-12T11:21:33.592Z,13.43
2023-05-12T11:24:39.721Z,13.35
2023-05-12T11:27:50.721Z,13.61
2023-05-12T11:30:55.154Z,13.39
2023-05-12T11:34:12.074Z,13.54
2023-05-12T11:37:16.383Z,13.36
2023-05-12T11:40:20.535Z,13.37
2023-05-12T11:43:22.742Z,13.54
2023-05-12T11:46:31.073Z,13.15
2023-05-12T11:49:33.005Z,13.16
2023-05-12T11:52:34.954Z,12.85
2023-05-12T11:55:36.805Z,12.37
2023-05-12T11:58:41.906Z,12.81
2023-05-12T12:01:46.727Z,12.83
2023-05-12T12:04:48.608Z,12.60
2023-05-12T12:07:50.541Z,12.66
2023-05-12T12:10:52.418Z,12.60
2023-05-12T12:13:58.028Z,12.53
2023-05-12T12:17:00.433Z,12.88
2023-05-12T12:20:03.068Z,12.75
2023-05-12T12:23:05.024Z,12.43
2023-05-12T12:26:06.869Z,12.92
2023-05-12T12:29:08.856Z,12.70
2023-05-12T12:32:11.065Z,12.78
2023-05-12T12:35:13.641Z,12.61
2023-05-12T12:38:15.545Z,12.76
2023-05-12T12:41:17.941Z,12.58
2023-05-12T12:44:19.750Z,12.52
2023-05-12T12:47:21.632Z,12.47
2023-05-12T12:50:25.035Z,12.46
2023-05-12T12:53:27.653Z,12.78
2023-05-12T12:56:30.014Z,12.57
2023-05-12T12:59:32.206Z,12.59
2023-05-12T13:02:34.724Z,13.00
2023-05-12T13:05:36.836Z,13.06
2023-05-12T13:08:38.675Z,13.36
2023-05-12T13:11:40.664Z,13.05
2023-05-12T13:14:42.490Z,13.13
2023-05-12T13:17:48.257Z,13.16
2023-05-12T13:20:50.222Z,12.90
2023-05-12T13:23:52.103Z,12.90
2023-05-12T13:26:53.897Z,12.75
2023-05-12T13:29:55.695Z,12.50
2023-05-12T13:32:57.669Z,12.68
2023-05-12T13:35:59.601Z,12.67
2023-05-12T13:39:02.847Z,12.53
2023-05-12T13:42:05.020Z,12.42
2023-05-12T13:45:07.358Z,12.35
2023-05-12T13:48:09.256Z,12.40
2023-05-12T13:51:11.323Z,12.55
2023-05-12T13:54:13.166Z,11.97
2023-05-12T13:57:15.100Z,12.07
2023-05-12T14:00:17.448Z,12.26
2023-05-12T14:03:19.348Z,12.27
2023-05-12T14:06:21.161Z,12.74
2023-05-12T14:09:23.273Z,12.99
2023-05-12T14:12:25.860Z,12.66
2023-05-12T14:15:40.454Z,12.57
2023-05-12T14:18:49.574Z,12.65
2023-05-12T14:21:51.503Z,12.61
2023-05-12T14:24:53.945Z,12.23
2023-05-12T14:27:56.250Z,12.08
2023-05-12T14:30:58.219Z,11.90
2023-05-12T14:34:00.176Z,11.52
2023-05-12T14:37:02.367Z,11.69
2023-05-12T14:40:05.432Z,11.48
2023-05-12T14:43:07.307Z,11.33
2023-05-12T14:46:09.208Z,11.49
2023-05-12T14:49:13.923Z,11.54
2023-05-12T14:52:15.962Z,11.78
2023-05-12T14:55:18.228Z,11.58
2023-05-12T14:58:21.954Z,11.52
2023-05-12T15:01:23.828Z,11.44
2023-05-12T15:04:27.186Z,11.37
2023-05-12T15:07:29.253Z,11.30
2023-05-12T15:10:31.764Z,11.44
2023-05-12T15:13:33.573Z,11.25
2023-05-12T15:16:35.950Z,11.23
2023-05-12T15:19:37.858Z,11.20
2023-05-12T15:22:39.675Z,10.83
2023-05-12T15:25:41.811Z,10.98
2023-05-12T15:28:43.600Z,10.79
2023-05-12T15:31:45.906Z,10.93
2023-05-12T15:34:47.984Z,10.92
2023-05-12T15:37:49.958Z,10.86
2023-05-12T15:40:51.950Z,11.00
2023-05-12T15:43:53.742Z,11.04
2023-05-12T15:46:55.874Z,11.01
2023-05-12T15:49:57.714Z,11.26
2023-05-12T15:52:59.537Z,11.27
2023-05-12T15:56:02.708Z,10.99
2023-05-12T15:59:07.569Z,10.70
2023-05-12T16:02:09.697Z,10.84
2023-05-12T16:05:12.197Z,10.72
2023-05-12T16:08:16.098Z,10.69
2023-05-12T16:11:17.961Z,10.69
2023-05-12T16:14:19.996Z,10.80
2023-05-12T16:17:22.577Z,10.68
2023-05-12T16:20:24.457Z,10.61
2023-05-12T16:23:26.347Z,10.56
2023-05-12T16:26:28.157Z,10.66
2023-05-12T16:29:30.002Z,10.63
2023-05-12T16:32:32.268Z,10.30
2023-05-12T16:35:34.263Z,10.30
2023-05-12T16:38:36.124Z,10.33
2023-05-12T16:41:38.092Z,10.34
2023-05-12T16:44:40.454Z,10.42
2023-05-12T16:47:42.396Z,10.44
2023-05-12T16:50:44.305Z,10.66
2023-05-12T16:53:46.390Z,10.62
2023-05-12T16:56:48.473Z,10.73
2023-05-12T16:59:50.425Z,10.63
2023-05-12T17:02:52.327Z,10.63
2023-05-12T17:05:54.288Z,10.66
2023-05-12T17:08:56.153Z,10.59
2023-05-12T17:11:57.957Z,10.52
2023-05-12T17:15:06.878Z,10.74
2023-05-12T17:18:09.809Z,10.75
2023-05-12T17:21:12.371Z,10.54
2023-05-12T17:24:14.261Z,10.66
2023-05-12T17:27:16.374Z,10.69
2023-05-12T17:30:18.722Z,10.76
2023-05-12T17:33:20.627Z,10.75
2023-05-12T17:36:22.638Z,10.69
2023-05-12T17:39:24.517Z,10.52
2023-05-12T17:42:29.954Z,10.66
2023-05-12T17:45:31.817Z,10.48
2023-05-12T17:48:33.679Z,10.47
2023-05-12T17:51:35.579Z,10.38
2023-05-12T17:54:37.483Z,10.32
2023-05-12T17:57:39.378Z,10.41
2023-05-12T18:00:41.521Z,10.43
2023-05-12T18:03:43.920Z,10.45
2023-05-12T18:06:50.135Z,10.46
2023-05-12T18:09:52.096Z,10.35
2023-05-12T18:12:56.238Z,10.35
2023-05-12T18:15:58.096Z,10.17
2023-05-12T18:19:00.172Z,10.10
2023-05-12T18:22:02.104Z,10.20
2023-05-12T18:25:04.149Z,10.21
2023-05-12T18:28:07.508Z,10.04
2023-05-12T18:31:15.861Z,10.08
2023-05-12T18:34:18.363Z,10.11
2023-05-12T18:37:20.223Z,10.18
2023-05-12T18:40:22.200Z,10.27
2023-05-12T18:43:24.124Z,10.19
2023-05-12T18:46:26.125Z,10.15
2023-05-12T18:49:28.030Z,10.25
2023-05-12T18:52:29.873Z,10.13
2023-05-12T18:55:32.028Z,10.14
2023-05-12T18:58:33.866Z,10.22
2023-05-12T19:01:35.910Z,10.18
2023-05-12T19:04:38.168Z,10.15
2023-05-12T19:07:40.102Z,10.33
2023-05-12T19:10:41.957Z,10.28
2023-05-12T19:13:45.352Z,10.14
2023-05-12T19:16:47.444Z,10.09
2023-05-12T19:19:50.663Z,10.10
2023-05-12T19:22:52.653Z,10.08
2023-05-12T19:25:54.785Z,10.06
2023-05-12T19:28:56.628Z,9.96
2023-05-12T19:31:58.630Z,10.08
2023-05-12T19:35:01.051Z,9.91
2023-05-12T19:38:03.026Z,10.08
2023-05-12T19:41:04.862Z,10.09
2023-05-12T19:44:06.789Z,10.03
2023-05-12T19:47:09.375Z,10.05
2023-05-12T19:50:11.514Z,9.97
2023-05-12T19:53:13.444Z,10.06
2023-05-12T19:56:15.319Z,9.87
2023-05-12T19:59:18.666Z,9.77
2023-05-12T20:02:20.828Z,9.69
2023-05-12T20:05:22.998Z,9.60
2023-05-12T20:08:24.980Z,9.61
2023-05-12T20:11:27.199Z,9.59
2023-05-12T20:14:29.029Z,9.53
2023-05-12T20:17:30.921Z,9.62
2023-05-12T20:20:32.860Z,9.48
2023-05-12T20:23:34.698Z,9.41
2023-05-12T20:26:36.660Z,9.37
2023-05-12T20:29:38.461Z,9.47
2023-05-12T20:32:40.663Z,9.42
2023-05-12T20:35:43.770Z,9.40
2023-05-12T20:38:45.612Z,9.40
2023-05-12T20:41:47.509Z,9.47
2023-05-12T20:44:49.360Z,9.47
2023-05-12T20:47:51.305Z,9.41
2023-05-12T20:50:53.563Z,9.26
2023-05-12T20:53:58.700Z,9.26
2023-05-12T20:57:01.055Z,9.03
2023-05-12T21:00:04.028Z,9.07
2023-05-12T21:03:06.512Z,9.18
2023-05-12T21:06:09.071Z,9.27
2023-05-12T21:09:10.948Z,9.21
2023-05-12T21:12:12.813Z,9.05
2023-05-12T21:15:14.912Z,8.98
2023-05-12T21:18:16.916Z,9.06
2023-05-12T21:21:18.750Z,9.02
2023-05-12T21:24:20.647Z,8.99
2023-05-12T21:27:22.451Z,9.10
2023-05-12T21:30:24.323Z,9.00
2023-05-12T21:33:26.250Z,8.82
2023-05-12T21:36:28.042Z,8.91
2023-05-12T21:39:29.911Z,9.00
2023-05-12T21:42:31.752Z,8.90
2023-05-12T21:45:33.563Z,8.89
2023-05-12T21:48:35.443Z,8.77
2023-05-12T21:51:37.192Z,8.80
2023-05-12T21:54:39.319Z,8.94
2023-05-12T21:57:42.070Z,8.89
2023-05-12T22:00:43.958Z,8.73
2023-05-12T22:03:45.907Z,8.75
2023-05-12T22:06:47.723Z,8.60
2023-05-12T22:09:49.595Z,8.54
2023-05-12T22:12:51.582Z,8.52
2023-05-12T22:15:53.616Z,8.52
2023-05-12T22:18:55.772Z,8.59
2023-05-12T22:21:58.251Z,8.59
2023-05-12T22:25:00.103Z,8.65
2023-05-12T22:28:02.008Z,8.68
2023-05-12T22:31:03.938Z,8.61
2023-05-12T22:34:05.955Z,8.52
2023-05-12T22:37:07.837Z,8.57
2023-05-12T22:40:09.854Z,8.60
2023-05-12T22:43:13.475Z,8.66
2023-05-12T22:46:15.345Z,8.60
2023-05-12T22:49:17.121Z,8.57
2023-05-12T22:52:19.046Z,8.61
2023-05-12T22:58:22.876Z,8.36
2023-05-12T23:01:24.821Z,8.18
2023-05-12T23:04:27.014Z,8.22
2023-05-12T23:07:28.958Z,8.26
2023-05-12T23:10:30.953Z,8.26
2023-05-12T23:13:32.735Z,8.28
2023-05-12T23:16:34.709Z,8.24
2023-05-12T23:19:37.052Z,8.27
2023-05-12T23:22:38.843Z,8.25
2023-05-12T23:25:42.164Z,8.06
2023-05-12T23:28:43.932Z,7.90
2023-05-12T23:31:45.852Z,7.92
2023-05-12T23:34:47.685Z,8.00
2023-05-12T23:37:49.551Z,7.88
2023-05-12T23:40:51.421Z,7.95
2023-05-12T23:43:53.285Z,8.07
2023-05-12T23:46:55.323Z,8.09
2023-05-12T23:49:57.142Z,8.10
2023-05-12T23:52:58.980Z,8.06
2023-05-12T23:56:01.972Z,7.91
2023-05-12T23:59:03.897Z,7.91
